Time;durP1;ratioP1;P1;durP2;ratioP2;P2;SDS_P1;SDS_P2;PMS_P1;PMS_P2;Temp;Humidity;BMP_temperature;BMP_pressure;BME280_temperature;BME280_humidity;BME280_pressure;Samples;Min_cycle;Max_cycle;Signal;HPM_P1;HPM_P2
2021/04/19 00:00:18;;;;;;;37.27;21.80;;;8.70;99.90;;;;;;5052235;28;20693;-66
2021/04/19 00:02:43;;;;;;;35.40;22.55;;;8.70;99.90;;;;;;5052754;28;20381;-67
2021/04/19 00:05:16;;;;;;;39.30;22.07;;;8.70;99.90;;;;;;5051823;28;20768;-67
2021/04/19 00:07:41;;;;;;;34.38;20.80;;;8.70;99.90;;;;;;5052606;28;20889;-65
2021/04/19 00:10:09;;;;;;;34.67;22.00;;;8.70;99.90;;;;;;5051661;28;20374;-66
2021/04/19 00:12:35;;;;;;;35.83;21.95;;;8.80;99.90;;;;;;5051296;28;20866;-66
2021/04/19 00:15:02;;;;;;;35.23;21.27;;;8.80;99.90;;;;;;5051583;28;20385;-66
2021/04/19 00:17:28;;;;;;;33.78;21.52;;;8.80;99.90;;;;;;5052210;28;20381;-65
2021/04/19 00:19:54;;;;;;;33.37;21.53;;;8.80;99.90;;;;;;5052039;28;20890;-62
2021/04/19 00:22:19;;;;;;;31.80;20.85;;;8.90;99.90;;;;;;5071690;28;20385;-66
2021/04/19 00:24:45;;;;;;;35.17;21.83;;;9.00;99.90;;;;;;5072253;28;20759;-66
2021/04/19 00:27:10;;;;;;;35.15;21.70;;;9.00;99.90;;;;;;5071555;28;20396;-66
2021/04/19 00:29:36;;;;;;;31.70;21.17;;;9.10;99.90;;;;;;5072335;28;20726;-66
2021/04/19 00:32:02;;;;;;;38.63;22.93;;;9.10;99.90;;;;;;5071065;28;20553;-66
2021/04/19 00:34:28;;;;;;;33.80;20.92;;;9.10;99.90;;;;;;5072046;28;20481;-66
2021/04/19 00:36:53;;;;;;;32.67;21.70;;;9.10;99.90;;;;;;5072182;28;20380;-62
2021/04/19 00:39:19;;;;;;;34.67;21.47;;;9.10;99.90;;;;;;5071336;28;20379;-66
2021/04/19 00:41:46;;;;;;;34.90;20.92;;;9.10;99.90;;;;;;5071798;28;20410;-65
2021/04/19 00:44:13;;;;;;;36.28;22.63;;;9.10;99.90;;;;;;5070951;28;20390;-66
2021/04/19 00:46:39;;;;;;;36.80;23.20;;;8.90;99.90;;;;;;5071510;28;20379;-67
2021/04/19 00:49:05;;;;;;;36.45;21.80;;;9.00;99.90;;;;;;5071224;28;20876;-65
2021/04/19 00:51:30;;;;;;;36.42;22.85;;;8.80;99.90;;;;;;5071233;28;20391;-66
2021/04/19 00:53:56;;;;;;;37.00;23.17;;;8.70;99.90;;;;;;5053096;28;20391;-63
2021/04/19 00:56:22;;;;;;;35.53;22.75;;;8.80;99.90;;;;;;5071040;28;20406;-67
2021/04/19 00:58:48;;;;;;;37.92;22.92;;;8.90;99.90;;;;;;5071541;28;20376;-66
2021/04/19 01:01:15;;;;;;;35.95;22.83;;;8.80;99.90;;;;;;5052725;28;21022;-66
2021/04/19 01:03:42;;;;;;;36.67;21.38;;;8.70;99.90;;;;;;5070981;28;20865;-64
2021/04/19 01:06:08;;;;;;;34.05;21.33;;;8.70;99.90;;;;;;5070565;28;20380;-67
2021/04/19 01:08:35;;;;;;;36.00;21.33;;;8.80;99.90;;;;;;5071142;28;20841;-67
2021/04/19 01:11:00;;;;;;;36.78;21.15;;;8.80;99.90;;;;;;5070716;28;20376;-65
2021/04/19 01:13:26;;;;;;;32.13;20.73;;;8.70;99.90;;;;;;5071103;28;20727;-66
2021/04/19 01:15:52;;;;;;;30.48;19.88;;;8.70;99.90;;;;;;5071501;28;20384;-66
2021/04/19 01:18:18;;;;;;;35.00;22.13;;;8.80;99.90;;;;;;5070864;28;20395;-65
2021/04/19 01:20:45;;;;;;;34.05;20.38;;;8.80;99.90;;;;;;5071157;28;20406;-66
2021/04/19 01:23:12;;;;;;;31.80;20.17;;;8.80;99.90;;;;;;5070258;28;20388;-65
2021/04/19 01:25:38;;;;;;;31.67;20.30;;;8.70;99.90;;;;;;5070936;28;20387;-64
2021/04/19 01:28:04;;;;;;;32.35;21.35;;;8.80;99.90;;;;;;5070478;28;20806;-66
2021/04/19 01:30:39;;;;;;;34.00;19.70;;;8.80;99.90;;;;;;5071256;28;20368;-66
2021/04/19 01:33:05;;;;;;;33.50;20.77;;;8.90;99.90;;;;;;5070101;28;20422;-66
2021/04/19 01:35:31;;;;;;;33.37;20.40;;;8.80;99.90;;;;;;5052955;28;20408;-67
2021/04/19 01:37:57;;;;;;;30.77;19.67;;;8.80;99.90;;;;;;5070414;28;20376;-62
2021/04/19 01:40:23;;;;;;;31.73;19.60;;;8.60;99.90;;;;;;5070505;28;20403;-68
2021/04/19 01:42:49;;;;;;;31.30;20.20;;;8.60;99.90;;;;;;5070807;28;20441;-66
2021/04/19 01:45:16;;;;;;;31.10;19.83;;;8.60;99.90;;;;;;5069713;28;21023;-67
2021/04/19 01:47:43;;;;;;;29.75;19.65;;;8.60;99.90;;;;;;5070914;28;20829;-67
2021/04/19 01:50:15;;;;;;;32.40;20.65;;;8.40;99.90;;;;;;5069671;28;20382;-67
2021/04/19 01:52:42;;;;;;;28.08;19.50;;;8.50;99.90;;;;;;5070214;28;20730;-67
2021/04/19 01:55:11;;;;;;;29.38;19.35;;;8.50;99.90;;;;;;5069564;28;20379;-66
2021/04/19 01:57:39;;;;;;;29.98;19.10;;;8.60;99.90;;;;;;5070647;28;20474;-67
2021/04/19 02:00:08;;;;;;;32.40;20.20;;;8.60;99.90;;;;;;5069889;28;20376;-67
2021/04/19 02:02:55;;;;;;;30.92;20.17;;;8.60;99.90;;;;;;5070636;28;20491;-67
2021/04/19 02:05:35;;;;;;;32.75;19.35;;;8.60;99.90;;;;;;5069821;28;20386;-67
2021/04/19 02:08:18;;;;;;;30.33;19.52;;;8.60;99.90;;;;;;5069312;28;20467;-66
2021/04/19 02:10:53;;;;;;;31.90;20.03;;;8.70;99.90;;;;;;5070134;28;20372;-67
2021/04/19 02:13:41;;;;;;;28.90;20.10;;;8.70;99.90;;;;;;5051127;28;20427;-66
2021/04/19 02:16:10;;;;;;;30.90;19.77;;;8.70;99.90;;;;;;5051670;28;20401;-66
2021/04/19 02:18:48;;;;;;;28.98;18.83;;;8.60;99.90;;;;;;5070047;28;20380;-66
2021/04/19 02:21:44;;;;;;;33.00;20.60;;;8.70;99.90;;;;;;5069519;28;20388;-66
2021/04/19 02:24:14;;;;;;;29.15;18.70;;;8.70;99.90;;;;;;5058391;28;20390;-65
2021/04/19 02:26:48;;;;;;;28.50;18.38;;;8.70;99.90;;;;;;5070524;28;20411;-65
2021/04/19 02:29:22;;;;;;;29.08;18.75;;;8.70;99.90;;;;;;5051295;28;20711;-66
2021/04/19 02:31:54;;;;;;;30.90;19.23;;;8.70;99.90;;;;;;5070043;28;20869;-66
2021/04/19 02:34:21;;;;;;;31.17;18.70;;;8.80;99.90;;;;;;5069217;28;20940;-67
2021/04/19 02:36:50;;;;;;;29.08;18.90;;;8.60;99.90;;;;;;5070152;28;20375;-66
2021/04/19 02:39:17;;;;;;;29.77;18.58;;;8.60;99.90;;;;;;5050949;28;20384;-67
2021/04/19 02:41:48;;;;;;;27.08;17.30;;;8.70;99.90;;;;;;5069939;28;20376;-67
2021/04/19 02:44:15;;;;;;;30.25;18.05;;;8.70;99.90;;;;;;5068993;28;20379;-66
2021/04/19 02:46:42;;;;;;;28.15;18.00;;;8.70;99.90;;;;;;5070151;28;20695;-67
2021/04/19 02:49:09;;;;;;;25.60;17.20;;;8.70;99.90;;;;;;5069280;28;20378;-66
2021/04/19 02:51:35;;;;;;;27.65;17.13;;;8.60;99.90;;;;;;5069345;28;20388;-67
2021/04/19 02:54:02;;;;;;;28.17;17.40;;;8.60;99.90;;;;;;5068776;28;20372;-66
2021/04/19 02:56:34;;;;;;;29.33;17.83;;;8.60;99.90;;;;;;5069793;28;20388;-65
2021/04/19 02:59:04;;;;;;;29.48;18.25;;;8.60;99.90;;;;;;5069146;28;20379;-62
2021/04/19 03:01:32;;;;;;;26.13;17.90;;;8.60;99.90;;;;;;5069936;28;20386;-66
2021/04/19 03:04:02;;;;;;;27.75;18.40;;;8.70;99.90;;;;;;5069383;28;20498;-62
2021/04/19 03:06:30;;;;;;;24.83;17.50;;;8.70;99.90;;;;;;5051866;28;20729;-65
2021/04/19 03:09:01;;;;;;;28.95;17.50;;;8.60;99.90;;;;;;5069758;28;20909;-66
2021/04/19 03:11:49;;;;;;;27.45;17.00;;;8.60;99.90;;;;;;5067847;28;20376;-66
2021/04/19 03:14:16;;;;;;;29.00;17.90;;;8.60;99.90;;;;;;5069015;28;20388;-66
2021/04/19 03:16:48;;;;;;;30.43;18.50;;;8.60;99.90;;;;;;5069453;28;20375;-66
2021/04/19 03:19:16;;;;;;;26.77;16.80;;;8.50;99.90;;;;;;5068736;28;20364;-66
2021/04/19 03:21:43;;;;;;;27.90;18.58;;;8.40;99.90;;;;;;5069495;28;20846;-66
2021/04/19 03:24:11;;;;;;;28.40;17.45;;;8.30;99.90;;;;;;5067553;28;20451;-66
2021/04/19 03:26:39;;;;;;;27.73;16.63;;;8.50;99.90;;;;;;5071917;28;20391;-64
2021/04/19 03:29:06;;;;;;;26.00;17.13;;;8.30;99.90;;;;;;5072609;28;20415;-64
2021/04/19 03:31:40;;;;;;;27.50;17.38;;;8.30;99.90;;;;;;5066637;28;20412;-66
2021/04/19 03:34:12;;;;;;;25.65;16.95;;;8.40;99.90;;;;;;5063151;28;20479;-65
2021/04/19 03:36:41;;;;;;;25.80;18.00;;;8.50;99.90;;;;;;5054628;28;20881;-65
2021/04/19 03:39:07;;;;;;;30.15;18.48;;;8.50;99.90;;;;;;5052016;28;20459;-65
2021/04/19 03:41:39;;;;;;;28.65;17.88;;;8.40;99.90;;;;;;5053023;28;20377;-65
2021/04/19 03:44:08;;;;;;;27.77;18.08;;;8.40;99.90;;;;;;5052064;28;20378;-65
2021/04/19 03:46:39;;;;;;;27.75;18.50;;;8.40;99.90;;;;;;5051637;28;20743;-65
2021/04/19 03:49:09;;;;;;;30.02;18.80;;;8.40;99.90;;;;;;5052624;28;20377;-64
2021/04/19 03:51:36;;;;;;;30.35;17.67;;;8.40;99.90;;;;;;5052932;28;20723;-65
2021/04/19 03:54:03;;;;;;;26.55;17.88;;;8.50;99.90;;;;;;5051765;28;20385;-65
2021/04/19 03:56:33;;;;;;;29.27;18.73;;;8.50;99.90;;;;;;5052514;28;20397;-65
2021/04/19 03:59:02;;;;;;;32.05;18.58;;;8.60;99.90;;;;;;5052188;28;20899;-61
2021/04/19 04:01:29;;;;;;;30.37;18.63;;;8.60;99.90;;;;;;5052543;28;20407;-64
2021/04/19 04:03:56;;;;;;;28.30;19.07;;;8.80;99.90;;;;;;5051731;28;20369;-65
2021/04/19 04:06:23;;;;;;;30.48;17.70;;;8.70;99.90;;;;;;5052115;28;20392;-64
2021/04/19 04:08:51;;;;;;;29.42;19.00;;;8.70;99.90;;;;;;5052584;28;20388;-65
2021/04/19 04:11:17;;;;;;;29.73;18.60;;;8.60;99.90;;;;;;5050370;28;20392;-66
2021/04/19 04:13:43;;;;;;;28.88;18.33;;;8.60;99.90;;;;;;5052564;28;20874;-65
2021/04/19 04:16:08;;;;;;;27.97;17.70;;;8.70;99.90;;;;;;5051966;28;20855;-65
2021/04/19 04:18:34;;;;;;;26.85;18.42;;;8.60;99.90;;;;;;5052323;28;20720;-65
2021/04/19 04:21:01;;;;;;;27.90;18.40;;;8.60;99.90;;;;;;5051647;28;20381;-61
2021/04/19 04:23:27;;;;;;;28.80;18.70;;;8.70;99.90;;;;;;5051887;28;20378;-65
2021/04/19 04:25:53;;;;;;;27.33;17.95;;;8.60;99.90;;;;;;5052169;28;20480;-64
2021/04/19 04:28:19;;;;;;;28.35;18.60;;;8.60;99.90;;;;;;5051347;28;20519;-65
2021/04/19 04:30:45;;;;;;;29.23;18.80;;;8.50;99.90;;;;;;5052168;28;20381;-66
2021/04/19 04:33:10;;;;;;;28.33;17.80;;;8.50;99.90;;;;;;5051113;28;20416;-65
2021/04/19 04:35:37;;;;;;;28.55;18.77;;;8.60;99.90;;;;;;5051839;28;20937;-65
2021/04/19 04:38:03;;;;;;;30.67;19.00;;;8.70;99.90;;;;;;5061790;28;20381;-64
2021/04/19 04:40:31;;;;;;;28.05;18.23;;;8.70;99.90;;;;;;5060646;28;20730;-63
2021/04/19 04:43:04;;;;;;;30.27;19.50;;;8.80;99.90;;;;;;5055146;28;20405;-65
2021/04/19 04:45:33;;;;;;;27.47;18.00;;;8.80;99.90;;;;;;5066618;28;20498;-65
2021/04/19 04:48:18;;;;;;;30.15;20.10;;;8.80;99.90;;;;;;5065368;28;20371;-61
2021/04/19 04:50:52;;;;;;;31.58;18.67;;;8.70;99.90;;;;;;5062185;28;20470;-65
2021/04/19 04:53:35;;;;;;;29.25;19.25;;;8.80;99.90;;;;;;5061570;28;20424;-64
2021/04/19 04:56:01;;;;;;;31.38;20.15;;;8.80;99.90;;;;;;5065492;28;20410;-61
2021/04/19 04:58:28;;;;;;;30.77;18.60;;;8.90;99.90;;;;;;5068482;28;20459;-66
2021/04/19 05:00:54;;;;;;;30.55;19.35;;;8.90;99.90;;;;;;5060039;28;20386;-65
2021/04/19 05:03:22;;;;;;;30.00;19.10;;;8.90;99.90;;;;;;5061320;28;20385;-65
2021/04/19 05:05:49;;;;;;;29.53;19.50;;;8.80;99.90;;;;;;5051750;28;20374;-63
2021/04/19 05:08:15;;;;;;;29.27;19.08;;;8.80;99.90;;;;;;5058646;28;20900;-65
2021/04/19 05:10:42;;;;;;;28.92;18.90;;;8.80;99.90;;;;;;5062074;28;20378;-65
2021/04/19 05:13:15;;;;;;;34.47;19.75;;;8.80;99.90;;;;;;5060176;28;20867;-65
2021/04/19 05:15:46;;;;;;;29.55;19.45;;;8.90;99.90;;;;;;5059388;28;20427;-66
2021/04/19 05:18:17;;;;;;;28.23;18.48;;;8.90;99.90;;;;;;5049636;28;20464;-65
2021/04/19 05:20:44;;;;;;;31.20;19.38;;;8.90;99.90;;;;;;5051051;28;20835;-65
2021/04/19 05:23:10;;;;;;;29.42;18.92;;;8.90;99.90;;;;;;5049088;28;20811;-65
2021/04/19 05:25:36;;;;;;;32.40;19.87;;;9.00;99.90;;;;;;5051021;28;20400;-64
2021/04/19 05:28:03;;;;;;;31.85;20.00;;;8.90;99.90;;;;;;5050239;28;20425;-60
2021/04/19 05:30:29;;;;;;;39.08;24.77;;;9.00;99.90;;;;;;5051154;28;20386;-64
2021/04/19 05:32:58;;;;;;;36.95;24.23;;;9.10;99.90;;;;;;5051033;28;20441;-64
2021/04/19 05:35:24;;;;;;;28.63;19.88;;;9.20;99.90;;;;;;5049840;28;20389;-64
2021/04/19 05:37:50;;;;;;;32.38;21.27;;;9.20;99.90;;;;;;5050451;28;20412;-67
2021/04/19 05:40:17;;;;;;;29.05;19.85;;;9.10;99.90;;;;;;5049094;28;20396;-67
2021/04/19 05:42:43;;;;;;;30.37;19.20;;;9.10;99.90;;;;;;5050763;28;20409;-67
2021/04/19 05:45:09;;;;;;;30.73;19.52;;;9.10;99.90;;;;;;5050057;28;20404;-67
2021/04/19 05:47:37;;;;;;;32.40;20.67;;;8.90;99.90;;;;;;5050671;28;20386;-66
2021/04/19 05:50:05;;;;;;;29.50;20.20;;;8.80;99.90;;;;;;5049394;28;20720;-63
2021/04/19 05:52:30;;;;;;;31.63;19.85;;;8.90;99.90;;;;;;5052399;28;20440;-66
2021/04/19 05:54:56;;;;;;;35.38;20.77;;;8.90;99.90;;;;;;5063992;28;20399;-66
2021/04/19 05:57:40;;;;;;;30.20;19.67;;;9.00;99.90;;;;;;5051316;28;20525;-66
2021/04/19 06:00:15;;;;;;;33.33;20.08;;;9.00;99.90;;;;;;5069502;28;20376;-66
2021/04/19 06:03:06;;;;;;;38.53;23.63;;;8.90;99.90;;;;;;5070240;28;20565;-67
2021/04/19 06:05:39;;;;;;;31.70;20.48;;;8.80;99.90;;;;;;5060806;28;20850;-65
2021/04/19 06:08:15;;;;;;;33.03;20.50;;;8.60;99.90;;;;;;5068842;28;20386;-64
2021/04/19 06:10:51;;;;;;;35.72;21.65;;;8.30;99.90;;;;;;5069737;28;20388;-65
2021/04/19 06:13:19;;;;;;;37.67;23.58;;;8.10;99.90;;;;;;5068875;28;20465;-65
2021/04/19 06:15:47;;;;;;;35.17;21.80;;;8.10;99.90;;;;;;5069635;28;20414;-65
2021/04/19 06:18:18;;;;;;;35.65;21.70;;;8.00;99.90;;;;;;5069147;28;20380;-62
2021/04/19 06:20:45;;;;;;;39.40;22.00;;;8.00;99.90;;;;;;5069714;28;20378;-64
2021/04/19 06:23:10;;;;;;;37.87;22.77;;;8.00;99.90;;;;;;5069021;28;20888;-66
2021/04/19 06:25:36;;;;;;;36.00;21.67;;;8.00;99.90;;;;;;5069330;28;20534;-66
2021/04/19 06:28:05;;;;;;;38.90;22.23;;;8.10;99.90;;;;;;5068885;28;20387;-65
2021/04/19 06:30:40;;;;;;;38.47;22.65;;;8.00;99.90;;;;;;5069605;28;20379;-65
2021/04/19 06:33:07;;;;;;;34.97;21.80;;;8.10;99.90;;;;;;5069070;28;20549;-66
2021/04/19 06:35:33;;;;;;;37.35;22.45;;;8.10;99.90;;;;;;5069781;28;20396;-66
2021/04/19 06:37:59;;;;;;;38.03;22.73;;;8.10;99.90;;;;;;5051502;28;20446;-65
2021/04/19 06:40:26;;;;;;;34.00;22.40;;;8.00;99.90;;;;;;5068636;28;20376;-66
2021/04/19 06:42:57;;;;;;;33.95;21.80;;;7.90;99.90;;;;;;5069857;28;20399;-66
2021/04/19 06:45:23;;;;;;;32.83;22.10;;;7.90;99.90;;;;;;5068684;28;20407;-65
2021/04/19 06:47:51;;;;;;;38.47;22.48;;;8.00;99.90;;;;;;5051807;28;20422;-65
2021/04/19 06:50:16;;;;;;;35.10;21.75;;;8.00;99.90;;;;;;5068369;28;20379;-65
2021/04/19 06:52:47;;;;;;;35.73;22.70;;;8.10;99.90;;;;;;5051425;28;20421;-65
2021/04/19 06:55:14;;;;;;;39.70;23.07;;;8.20;99.90;;;;;;5068461;28;20399;-66
2021/04/19 06:57:43;;;;;;;39.00;22.30;;;8.20;99.90;;;;;;5069463;28;20749;-66
2021/04/19 07:00:11;;;;;;;35.95;23.27;;;8.20;99.90;;;;;;5069197;28;20368;-66
2021/04/19 07:02:49;;;;;;;37.25;23.23;;;8.20;99.90;;;;;;5073361;28;20380;-66
2021/04/19 07:05:22;;;;;;;34.92;21.70;;;8.20;99.90;;;;;;5072659;28;20375;-64
2021/04/19 07:07:55;;;;;;;34.67;22.33;;;8.00;99.90;;;;;;5073326;28;20367;-65
2021/04/19 07:10:21;;;;;;;33.97;22.73;;;7.90;99.90;;;;;;5072364;28;20395;-66
2021/04/19 07:12:47;;;;;;;37.67;23.05;;;7.90;99.90;;;;;;5072900;28;20399;-65
2021/04/19 07:15:16;;;;;;;38.03;23.80;;;7.90;99.90;;;;;;5071916;28;20376;-65
2021/04/19 07:17:43;;;;;;;36.95;23.38;;;7.70;99.90;;;;;;5073042;28;20470;-62
2021/04/19 07:20:11;;;;;;;42.05;26.08;;;7.70;99.90;;;;;;5072268;28;20367;-63
2021/04/19 07:22:38;;;;;;;42.85;24.27;;;7.70;99.90;;;;;;5072290;28;20399;-67
2021/04/19 07:25:05;;;;;;;40.20;23.83;;;7.90;99.90;;;;;;5053902;28;20458;-62
2021/04/19 07:27:31;;;;;;;43.17;24.42;;;7.90;99.90;;;;;;5073166;28;20390;-66
2021/04/19 07:29:56;;;;;;;37.22;24.77;;;7.90;99.90;;;;;;5072951;28;20380;-66
2021/04/19 07:32:36;;;;;;;39.83;24.13;;;7.90;99.90;;;;;;5071791;28;21011;-65
2021/04/19 07:35:05;;;;;;;39.10;24.90;;;7.80;99.90;;;;;;5072012;28;20407;-60
2021/04/19 07:37:31;;;;;;;41.47;24.92;;;7.80;99.90;;;;;;5072826;28;20399;-66
2021/04/19 07:39:58;;;;;;;38.95;24.35;;;7.90;99.90;;;;;;5072662;28;20925;-62
2021/04/19 07:42:23;;;;;;;44.33;24.33;;;7.80;99.90;;;;;;5071635;28;20623;-64
2021/04/19 07:44:51;;;;;;;39.20;26.02;;;7.70;99.90;;;;;;5072324;28;20842;-64
2021/04/19 07:47:23;;;;;;;39.30;25.10;;;7.70;99.90;;;;;;5071683;28;21139;-65
2021/04/19 07:50:09;;;;;;;39.40;26.10;;;7.70;99.90;;;;;;5072366;28;20380;-65
2021/04/19 07:52:57;;;;;;;42.83;25.35;;;7.80;99.90;;;;;;5072557;28;20403;-65
2021/04/19 07:55:29;;;;;;;37.58;24.38;;;7.90;99.90;;;;;;5071559;28;20742;-66
2021/04/19 07:57:55;;;;;;;40.63;24.23;;;7.90;99.90;;;;;;5072808;28;20376;-63
2021/04/19 08:00:35;;;;;;;42.70;25.10;;;8.00;99.90;;;;;;5071724;28;20380;-65
2021/04/19 08:03:04;;;;;;;42.10;25.95;;;8.10;99.90;;;;;;5071876;28;20375;-60
2021/04/19 08:05:32;;;;;;;45.50;25.50;;;8.10;99.90;;;;;;5072372;28;20380;-65
2021/04/19 08:07:57;;;;;;;38.25;24.52;;;8.10;99.90;;;;;;5072455;28;20387;-65
2021/04/19 08:10:23;;;;;;;40.40;24.30;;;8.20;99.90;;;;;;5071753;28;20362;-65
2021/04/19 08:12:52;;;;;;;37.77;24.23;;;8.30;99.90;;;;;;5072104;28;20408;-65
2021/04/19 08:15:21;;;;;;;40.93;25.03;;;8.50;99.90;;;;;;5071128;28;20380;-61
2021/04/19 08:17:47;;;;;;;39.13;23.80;;;8.60;99.90;;;;;;5071855;28;20382;-66
2021/04/19 08:20:16;;;;;;;36.80;23.35;;;8.40;99.90;;;;;;5071142;28;20408;-65
2021/04/19 08:22:42;;;;;;;36.13;22.58;;;8.50;99.90;;;;;;5072006;28;20861;-64
2021/04/19 08:25:23;;;;;;;41.78;23.83;;;8.60;99.90;;;;;;5071497;28;20414;-64
2021/04/19 08:28:13;;;;;;;37.55;23.73;;;8.70;99.90;;;;;;5071980;28;20381;-65
2021/04/19 08:30:41;;;;;;;42.35;24.85;;;8.80;99.90;;;;;;5072015;28;20376;-64
2021/04/19 08:33:08;;;;;;;38.40;24.92;;;9.00;99.90;;;;;;5070844;28;20453;-61
2021/04/19 08:35:34;;;;;;;39.90;24.15;;;9.20;99.90;;;;;;5071364;28;20468;-65
2021/04/19 08:38:02;;;;;;;39.15;24.13;;;9.10;99.90;;;;;;5072065;28;20428;-65
2021/04/19 08:40:29;;;;;;;36.55;22.85;;;9.20;99.90;;;;;;5070983;28;20466;-65
2021/04/19 08:42:56;;;;;;;41.25;24.48;;;9.10;99.90;;;;;;5071558;28;20857;-65
2021/04/19 08:45:23;;;;;;;40.47;24.88;;;9.10;99.90;;;;;;5070845;28;20762;-66
2021/04/19 08:47:49;;;;;;;40.50;24.00;;;9.30;99.90;;;;;;5071833;28;20473;-65
2021/04/19 08:50:22;;;;;;;36.20;22.70;;;9.30;99.90;;;;;;5070577;28;20484;-65
2021/04/19 08:52:48;;;;;;;36.60;24.20;;;9.30;99.90;;;;;;5071534;28;20399;-61
2021/04/19 08:55:14;;;;;;;36.70;22.63;;;9.30;99.90;;;;;;5070288;28;20391;-64
2021/04/19 08:57:45;;;;;;;42.80;23.02;;;9.40;99.90;;;;;;5071406;28;20384;-64
2021/04/19 09:00:13;;;;;;;37.55;23.73;;;9.30;99.90;;;;;;5070522;28;20734;-65
2021/04/19 09:02:39;;;;;;;38.35;23.70;;;9.40;99.90;;;;;;5071359;28;20383;-64
2021/04/19 09:05:16;;;;;;;35.50;22.92;;;9.40;99.90;;;;;;5070778;28;20706;-61
2021/04/19 09:07:46;;;;;;;33.90;22.73;;;9.60;99.90;;;;;;5070825;28;20899;-64
2021/04/19 09:10:15;;;;;;;37.75;23.35;;;9.70;99.90;;;;;;5070442;28;20415;-64
2021/04/19 09:12:41;;;;;;;42.33;23.83;;;9.80;99.90;;;;;;5070067;28;20490;-65
2021/04/19 09:15:11;;;;;;;36.00;23.38;;;10.00;99.90;;;;;;5070281;28;20383;-61
2021/04/19 09:17:40;;;;;;;42.37;24.80;;;10.10;99.90;;;;;;5070716;28;20384;-64
2021/04/19 09:20:11;;;;;;;36.80;22.02;;;10.10;99.90;;;;;;5070336;28;20471;-64
2021/04/19 09:22:38;;;;;;;39.67;22.58;;;10.10;99.90;;;;;;5070422;28;20390;-65
2021/04/19 09:25:09;;;;;;;34.00;22.98;;;10.10;99.90;;;;;;5070026;28;20853;-61
2021/04/19 09:27:54;;;;;;;35.50;24.02;;;10.00;99.90;;;;;;5070455;28;20394;-64
2021/04/19 09:30:29;;;;;;;37.35;24.67;;;10.00;99.90;;;;;;5067583;28;20387;-64
2021/04/19 09:33:04;;;;;;;38.80;24.17;;;9.90;99.90;;;;;;5070663;28;20403;-64
2021/04/19 09:35:41;;;;;;;38.08;25.77;;;9.80;99.90;;;;;;5069638;28;20884;-64
2021/04/19 09:38:08;;;;;;;37.53;24.77;;;9.90;99.90;;;;;;5069776;28;20384;-61
2021/04/19 09:41:00;;;;;;;36.22;23.80;;;9.60;99.90;;;;;;5070143;28;20785;-64
2021/04/19 09:43:36;;;;;;;40.55;26.35;;;9.50;99.90;;;;;;5062996;28;20426;-64
2021/04/19 09:46:22;;;;;;;40.85;25.88;;;9.40;99.90;;;;;;5070659;28;20786;-65
2021/04/19 09:49:02;;;;;;;42.30;27.00;;;9.40;99.90;;;;;;5070158;28;20384;-63
2021/04/19 09:51:29;;;;;;;39.13;25.13;;;9.50;99.90;;;;;;5069469;28;20498;-65
2021/04/19 09:54:22;;;;;;;39.83;24.63;;;9.50;99.90;;;;;;5070397;28;20718;-64
2021/04/19 09:56:50;;;;;;;36.10;25.23;;;9.50;99.90;;;;;;5070469;28;20391;-63
2021/04/19 09:59:24;;;;;;;37.10;25.05;;;9.60;99.90;;;;;;5069429;28;20384;-64
2021/04/19 10:01:52;;;;;;;41.58;24.20;;;9.90;99.90;;;;;;5070041;28;20387;-64
2021/04/19 10:04:18;;;;;;;38.38;24.27;;;10.00;99.90;;;;;;5069320;28;20455;-65
2021/04/19 10:06:46;;;;;;;36.83;24.27;;;10.20;99.90;;;;;;5069869;28;20398;-65
2021/04/19 10:09:17;;;;;;;35.92;23.35;;;10.30;99.90;;;;;;5069476;28;20882;-65
2021/04/19 10:11:44;;;;;;;33.93;22.23;;;10.30;99.90;;;;;;5069969;28;20837;-64
2021/04/19 10:14:15;;;;;;;37.60;23.13;;;10.20;99.90;;;;;;5068935;28;20603;-64
2021/04/19 10:16:44;;;;;;;41.42;26.10;;;10.10;99.90;;;;;;5069996;28;20368;-65
2021/04/19 10:19:10;;;;;;;38.20;22.55;;;10.10;99.90;;;;;;5069328;28;20376;-63
2021/04/19 10:21:38;;;;;;;39.25;24.42;;;9.90;99.90;;;;;;5069856;28;20376;-64
2021/04/19 10:24:11;;;;;;;40.90;25.55;;;9.90;99.90;;;;;;5070124;28;20419;-64
2021/04/19 10:26:39;;;;;;;41.63;27.20;;;9.80;99.90;;;;;;5069737;28;20404;-65
2021/04/19 10:29:18;;;;;;;40.85;26.48;;;9.80;99.90;;;;;;5069585;28;20372;-61
2021/04/19 10:31:58;;;;;;;37.92;24.42;;;9.80;99.90;;;;;;5069572;28;20371;-65
2021/04/19 10:34:27;;;;;;;39.70;24.42;;;9.80;99.90;;;;;;5068809;28;20501;-66
2021/04/19 10:36:56;;;;;;;35.58;23.60;;;10.00;99.90;;;;;;5069679;28;20372;-65
2021/04/19 10:39:25;;;;;;;33.60;22.92;;;10.20;99.90;;;;;;5069018;28;20698;-66
2021/04/19 10:41:53;;;;;;;38.15;23.48;;;10.40;99.90;;;;;;5051504;28;20467;-66
2021/04/19 10:44:30;;;;;;;37.78;24.67;;;10.50;99.90;;;;;;5068913;28;20757;-64
2021/04/19 10:46:56;;;;;;;36.80;24.25;;;10.70;99.90;;;;;;5069756;28;20407;-65
2021/04/19 10:49:27;;;;;;;36.17;23.10;;;10.60;99.90;;;;;;5068703;28;20400;-65
2021/04/19 10:51:55;;;;;;;38.95;24.27;;;10.60;99.90;;;;;;5069420;28;20376;-65
2021/04/19 10:54:26;;;;;;;35.90;22.63;;;10.50;99.90;;;;;;5068758;28;20463;-66
2021/04/19 10:56:52;;;;;;;38.35;23.73;;;10.40;99.90;;;;;;5069792;28;20395;-65
2021/04/19 10:59:18;;;;;;;39.40;23.77;;;10.50;99.90;;;;;;5068540;28;20449;-64
2021/04/19 11:01:45;;;;;;;35.83;23.27;;;10.40;99.90;;;;;;5069166;28;20422;-64
2021/04/19 11:04:12;;;;;;;37.25;22.42;;;10.30;99.90;;;;;;5050524;28;20861;-65
2021/04/19 11:06:38;;;;;;;36.67;23.40;;;10.40;99.90;;;;;;5069201;28;20698;-65
2021/04/19 11:09:08;;;;;;;35.50;21.38;;;10.20;99.90;;;;;;5069048;28;20392;-65
2021/04/19 11:11:37;;;;;;;37.47;21.58;;;10.20;99.90;;;;;;5068708;28;20391;-65
2021/04/19 11:14:15;;;;;;;35.85;21.70;;;10.30;99.90;;;;;;5069146;28;20395;-65
2021/04/19 11:16:59;;;;;;;37.55;21.88;;;10.30;99.90;;;;;;5069081;28;20371;-65
2021/04/19 11:19:44;;;;;;;36.50;21.80;;;10.30;99.90;;;;;;5068576;28;20399;-66
2021/04/19 11:22:24;;;;;;;32.63;21.70;;;10.20;99.90;;;;;;5066381;28;20483;-61
2021/04/19 11:24:50;;;;;;;35.63;21.60;;;10.20;99.90;;;;;;5069080;28;20379;-64
2021/04/19 11:27:22;;;;;;;36.80;22.08;;;10.40;99.90;;;;;;5068594;28;20384;-65
2021/04/19 11:29:48;;;;;;;36.00;21.60;;;10.40;99.90;;;;;;5068243;28;20387;-65
2021/04/19 11:32:46;;;;;;;37.23;22.30;;;10.40;99.90;;;;;;5068272;28;20404;-66
2021/04/19 11:35:24;;;;;;;34.53;21.23;;;10.60;99.90;;;;;;5034281;28;20411;-65
2021/04/19 11:38:01;;;;;;;36.10;21.20;;;10.70;99.90;;;;;;5068742;28;20387;-65
2021/04/19 11:40:33;;;;;;;35.20;22.98;;;10.50;99.90;;;;;;5068391;28;20529;-65
2021/04/19 11:43:19;;;;;;;37.60;23.13;;;10.60;99.90;;;;;;5068180;28;20830;-64
2021/04/19 11:45:46;;;;;;;35.88;22.58;;;10.70;99.90;;;;;;5068634;28;20783;-65
2021/04/19 11:48:12;;;;;;;39.00;21.27;;;10.60;99.90;;;;;;5071828;28;20379;-64
2021/04/19 11:50:39;;;;;;;35.10;22.00;;;10.50;99.90;;;;;;5072384;28;20387;-65
2021/04/19 11:53:06;;;;;;;37.78;22.13;;;10.70;99.90;;;;;;5072162;28;20421;-63
2021/04/19 11:55:31;;;;;;;30.98;20.65;;;11.20;99.90;;;;;;5071326;28;20452;-63
2021/04/19 11:57:57;;;;;;;32.45;19.30;;;11.40;99.90;;;;;;5072332;28;20467;-63
2021/04/19 12:00:23;;;;;;;30.50;19.65;;;11.40;99.90;;;;;;5069866;28;20571;-64
2021/04/19 12:02:49;;;;;;;33.15;20.48;;;11.20;99.90;;;;;;5072051;28;20425;-66
2021/04/19 12:05:14;;;;;;;33.00;19.90;;;11.00;99.90;;;;;;5071304;28;20383;-65
2021/04/19 12:07:40;;;;;;;38.45;22.17;;;10.90;99.90;;;;;;5071517;28;20380;-65
2021/04/19 12:10:08;;;;;;;35.03;21.77;;;10.90;99.90;;;;;;5071938;28;20569;-65
2021/04/19 12:12:33;;;;;;;34.05;20.77;;;10.90;99.90;;;;;;5071217;28;20410;-65
2021/04/19 12:14:59;;;;;;;33.70;20.73;;;10.80;99.90;;;;;;5072075;28;20376;-65
2021/04/19 12:17:24;;;;;;;34.87;21.80;;;10.80;99.90;;;;;;5071061;28;20968;-65
2021/04/19 12:19:50;;;;;;;34.22;20.85;;;10.90;99.90;;;;;;5071893;28;20889;-65
2021/04/19 12:22:16;;;;;;;33.90;20.93;;;10.80;99.90;;;;;;5070653;28;20892;-65
2021/04/19 12:24:41;;;;;;;33.03;20.55;;;10.80;99.90;;;;;;5072306;28;20837;-65
2021/04/19 12:27:07;;;;;;;36.37;21.30;;;10.80;99.90;;;;;;5071262;28;20396;-64
2021/04/19 12:29:33;;;;;;;32.22;20.10;;;10.70;99.90;;;;;;5071682;28;20376;-64
2021/04/19 12:31:59;;;;;;;32.60;19.23;;;10.60;99.90;;;;;;5071654;28;20372;-66
2021/04/19 12:34:24;;;;;;;27.95;16.70;;;10.50;99.90;;;;;;5070744;28;20989;-65
2021/04/19 12:36:52;;;;;;;28.42;17.10;;;10.40;99.90;;;;;;5053639;28;20635;-65
2021/04/19 12:39:18;;;;;;;26.30;16.95;;;10.40;99.90;;;;;;5070337;28;20399;-65
2021/04/19 12:41:45;;;;;;;27.55;17.15;;;10.70;99.90;;;;;;5071227;28;20395;-66
2021/04/19 12:44:11;;;;;;;28.80;18.87;;;10.80;99.90;;;;;;5070826;28;20392;-59
2021/04/19 12:46:37;;;;;;;26.90;17.93;;;10.90;99.90;;;;;;5071455;28;20845;-63